Time;durP1;ratioP1;P1;durP2;ratioP2;P2;SDS_P1;SDS_P2;PMS_P1;PMS_P2;Temp;Humidity;BMP_temperature;BMP_pressure;BME280_temperature;BME280_humidity;BME280_pressure;Samples;Min_cycle;Max_cycle;Signal;HPM_P1;HPM_P2
2023/04/17 00:02:12;;;;;;;12.90;7.03;;;20.50;60.40;;;;;;5063995;28;20489;-70
2023/04/17 00:04:39;;;;;;;20.75;7.05;;;20.50;60.40;;;;;;5067960;28;20082;-70
2023/04/17 00:07:06;;;;;;;12.70;7.00;;;20.50;60.40;;;;;;5066783;28;20021;-70
2023/04/17 00:09:32;;;;;;;15.13;7.68;;;20.50;60.30;;;;;;5046079;28;20453;-71
2023/04/17 00:11:58;;;;;;;13.73;6.85;;;20.60;62.40;;;;;;5069446;28;20311;-71
2023/04/17 00:14:24;;;;;;;15.02;7.57;;;20.60;61.50;;;;;;5051704;28;20041;-72
2023/04/17 00:16:51;;;;;;;18.48;7.43;;;20.60;62.20;;;;;;5070212;28;20101;-69
2023/04/17 00:19:16;;;;;;;14.10;7.05;;;20.60;61.20;;;;;;5073483;28;20094;-70
2023/04/17 00:21:42;;;;;;;24.23;7.55;;;20.60;60.80;;;;;;5074058;28;20466;-70
2023/04/17 00:24:08;;;;;;;16.25;6.68;;;20.60;61.00;;;;;;5035805;28;20036;-70
2023/04/17 00:26:34;;;;;;;14.65;7.13;;;20.60;61.10;;;;;;5065075;28;20040;-70
2023/04/17 00:29:01;;;;;;;23.58;6.85;;;20.50;61.10;;;;;;5072682;28;20028;-70
2023/04/17 00:31:26;;;;;;;14.18;7.03;;;20.50;61.20;;;;;;5037242;28;20041;-70
2023/04/17 00:33:52;;;;;;;12.32;7.07;;;20.50;61.30;;;;;;5073642;28;20124;-71
2023/04/17 00:36:18;;;;;;;16.98;6.70;;;20.50;61.30;;;;;;5061733;28;20074;-71
2023/04/17 00:38:44;;;;;;;20.35;6.50;;;20.50;61.50;;;;;;5036360;28;20045;-70
2023/04/17 00:41:10;;;;;;;16.35;6.88;;;20.50;61.50;;;;;;5053870;28;20031;-70
2023/04/17 00:43:36;;;;;;;15.55;6.97;;;20.40;61.50;;;;;;5053482;28;20478;-70
2023/04/17 00:46:04;;;;;;;16.20;6.72;;;20.40;61.50;;;;;;5053790;28;20507;-69
2023/04/17 00:48:33;;;;;;;14.80;6.25;;;20.40;61.50;;;;;;5054423;28;20028;-70
2023/04/17 00:51:01;;;;;;;12.32;6.30;;;20.40;61.50;;;;;;5055512;28;20032;-70
2023/04/17 00:53:31;;;;;;;13.27;6.57;;;20.40;61.50;;;;;;5054796;28;20032;-70
2023/04/17 00:56:04;;;;;;;17.02;6.63;;;20.40;61.30;;;;;;5052072;28;20300;-70
2023/04/17 00:58:30;;;;;;;13.18;6.10;;;20.40;61.60;;;;;;5037847;28;20055;-70
2023/04/17 01:00:56;;;;;;;11.32;6.45;;;20.40;61.50;;;;;;5055183;28;20031;-70
2023/04/17 01:03:22;;;;;;;10.68;6.10;;;20.40;61.60;;;;;;5050080;28;20029;-70
2023/04/17 01:05:51;;;;;;;14.43;6.45;;;20.40;61.50;;;;;;5042497;28;20082;-69
2023/04/17 01:08:18;;;;;;;14.77;6.35;;;20.40;61.40;;;;;;5047596;28;20024;-70
2023/04/17 01:10:47;;;;;;;13.00;6.30;;;20.40;61.50;;;;;;5053039;28;20053;-70
2023/04/17 01:13:13;;;;;;;13.07;6.13;;;20.40;61.30;;;;;;5037636;28;20032;-70
2023/04/17 01:15:41;;;;;;;11.88;6.50;;;20.40;60.90;;;;;;5046080;28;20024;-70
2023/04/17 01:18:08;;;;;;;14.15;6.25;;;20.40;60.80;;;;;;5051913;28;20485;-70
2023/04/17 01:20:34;;;;;;;12.02;6.38;;;20.40;61.10;;;;;;5051409;28;20079;-70
2023/04/17 01:23:00;;;;;;;13.57;6.05;;;20.40;60.80;;;;;;5038311;28;20055;-70
2023/04/17 01:25:27;;;;;;;11.65;6.40;;;20.40;61.00;;;;;;5018474;28;20032;-70
2023/04/17 01:27:53;;;;;;;11.07;5.75;;;20.40;61.00;;;;;;5068332;28;20036;-70
2023/04/17 01:30:20;;;;;;;9.35;5.65;;;20.40;61.20;;;;;;5033588;28;20035;-70
2023/04/17 01:32:55;;;;;;;12.98;6.00;;;20.40;61.10;;;;;;5051623;28;20040;-69
2023/04/17 01:35:21;;;;;;;11.00;6.78;;;20.40;61.10;;;;;;5054474;28;20025;-69
2023/04/17 01:37:47;;;;;;;12.25;5.75;;;20.40;60.90;;;;;;5050647;28;20029;-69
2023/04/17 01:40:13;;;;;;;11.75;6.20;;;20.40;60.90;;;;;;5036797;28;20023;-70
2023/04/17 01:42:39;;;;;;;11.13;5.60;;;20.40;60.60;;;;;;5054025;28;20398;-69
2023/04/17 01:45:05;;;;;;;14.85;6.22;;;20.40;60.60;;;;;;5053022;28;20121;-70
2023/04/17 01:47:33;;;;;;;10.98;6.10;;;20.40;60.70;;;;;;5052537;28;20028;-70
2023/04/17 01:49:59;;;;;;;9.55;5.03;;;20.40;60.80;;;;;;5070956;28;20050;-70
2023/04/17 01:52:25;;;;;;;10.65;5.88;;;20.30;60.30;;;;;;5051181;28;20390;-70
2023/04/17 01:54:51;;;;;;;12.95;5.90;;;20.40;60.80;;;;;;5041400;28;20029;-70
2023/04/17 01:57:16;;;;;;;11.20;5.40;;;20.40;60.50;;;;;;5050102;28;20490;-71
2023/04/17 01:59:42;;;;;;;8.70;5.18;;;20.40;60.60;;;;;;5066858;28;20021;-69
2023/04/17 02:02:08;;;;;;;9.98;6.18;;;20.30;60.80;;;;;;5052065;28;20020;-70
2023/04/17 02:04:34;;;;;;;10.60;5.38;;;20.30;60.70;;;;;;5050048;28;20494;-70
2023/04/17 02:07:00;;;;;;;16.33;6.97;;;20.40;60.90;;;;;;5021190;28;20024;-70
2023/04/17 02:09:26;;;;;;;17.10;5.72;;;20.30;60.90;;;;;;5053011;28;20428;-70
2023/04/17 02:11:55;;;;;;;11.20;5.53;;;20.40;61.10;;;;;;5071166;28;20421;-70
2023/04/17 02:14:24;;;;;;;11.40;5.50;;;20.40;61.50;;;;;;5036497;28;20021;-70
2023/04/17 02:16:49;;;;;;;16.15;5.88;;;20.40;61.00;;;;;;5053108;28;20025;-70
2023/04/17 02:19:16;;;;;;;12.98;5.88;;;20.30;60.90;;;;;;5072060;28;20028;-70
2023/04/17 02:21:41;;;;;;;14.32;5.70;;;20.30;60.80;;;;;;5053321;28;20478;-69
2023/04/17 02:24:07;;;;;;;19.00;5.57;;;20.40;60.80;;;;;;5052888;28;20122;-70
2023/04/17 02:26:33;;;;;;;13.25;5.35;;;20.40;61.10;;;;;;5054183;28;20021;-70
2023/04/17 02:28:59;;;;;;;11.63;5.50;;;20.30;61.10;;;;;;5070208;28;20032;-70
2023/04/17 02:31:25;;;;;;;12.75;5.03;;;20.40;61.30;;;;;;5049951;28;20554;-70
2023/04/17 02:33:51;;;;;;;10.77;5.13;;;20.40;61.40;;;;;;5035649;28;20029;-70
2023/04/17 02:36:16;;;;;;;13.77;5.47;;;20.40;61.30;;;;;;5053653;28;20470;-70
2023/04/17 02:38:43;;;;;;;8.18;5.00;;;20.40;61.20;;;;;;5052394;28;20048;-71
2023/04/17 02:41:09;;;;;;;11.02;5.78;;;20.40;61.20;;;;;;5044751;28;20501;-70
2023/04/17 02:43:36;;;;;;;12.63;5.18;;;20.40;61.50;;;;;;5032810;28;20090;-70
2023/04/17 02:46:02;;;;;;;13.55;6.10;;;20.30;61.00;;;;;;5050892;28;20490;-70
2023/04/17 02:48:29;;;;;;;11.30;5.53;;;20.30;61.10;;;;;;5044611;28;20105;-70
2023/04/17 02:50:55;;;;;;;7.95;5.15;;;20.40;61.30;;;;;;5052618;28;20086;-70
2023/04/17 02:53:21;;;;;;;11.65;5.85;;;20.30;61.10;;;;;;5052137;28;20429;-70
2023/04/17 02:55:48;;;;;;;9.88;5.30;;;20.30;61.10;;;;;;5050142;28;20074;-70
2023/04/17 02:58:16;;;;;;;13.18;5.32;;;20.30;61.20;;;;;;5052599;28;20063;-69
2023/04/17 03:00:41;;;;;;;8.40;5.53;;;20.30;61.20;;;;;;5053408;28;20048;-70
2023/04/17 03:03:13;;;;;;;9.20;5.00;;;20.30;61.00;;;;;;5037362;28;20028;-70
2023/04/17 03:05:39;;;;;;;16.20;5.57;;;20.30;61.20;;;;;;5047846;28;20498;-70
2023/04/17 03:08:05;;;;;;;10.75;5.13;;;20.30;61.20;;;;;;5052534;28;20039;-69
2023/04/17 03:10:37;;;;;;;10.35;5.28;;;20.30;61.20;;;;;;5049969;28;20024;-69
2023/04/17 03:13:03;;;;;;;10.48;5.13;;;20.30;61.10;;;;;;5052619;28;20042;-69
2023/04/17 03:15:31;;;;;;;8.93;5.00;;;20.30;61.20;;;;;;5052169;28;20453;-70
2023/04/17 03:17:57;;;;;;;9.25;5.00;;;20.30;61.00;;;;;;5071056;28;20058;-69
2023/04/17 03:20:23;;;;;;;8.50;4.82;;;20.30;61.20;;;;;;5053018;28;20031;-69
2023/04/17 03:22:49;;;;;;;11.57;5.90;;;20.30;61.10;;;;;;5052100;28;20089;-69
2023/04/17 03:25:15;;;;;;;13.30;5.22;;;20.30;61.20;;;;;;5036223;28;20032;-69
2023/04/17 03:27:46;;;;;;;9.02;4.78;;;20.30;61.10;;;;;;5052298;28;20527;-69
2023/04/17 03:30:14;;;;;;;10.00;4.95;;;20.30;60.90;;;;;;5052112;28;20021;-69
2023/04/17 03:32:44;;;;;;;10.02;4.47;;;20.30;61.00;;;;;;5050206;28;20033;-70
2023/04/17 03:35:10;;;;;;;10.30;5.53;;;20.30;60.90;;;;;;5067505;28;20493;-70
2023/04/17 03:37:38;;;;;;;11.18;5.07;;;20.30;60.90;;;;;;5031757;28;20505;-70
2023/04/17 03:40:05;;;;;;;9.32;5.35;;;20.30;61.00;;;;;;5048606;28;20021;-69
2023/04/17 03:42:31;;;;;;;9.15;5.15;;;20.30;60.80;;;;;;5047044;28;20058;-70
2023/04/17 03:44:57;;;;;;;11.95;5.30;;;20.30;60.80;;;;;;5046994;28;20406;-70
2023/04/17 03:47:24;;;;;;;10.13;5.07;;;20.30;61.20;;;;;;5046662;28;20108;-70
2023/04/17 03:49:50;;;;;;;7.70;5.10;;;20.30;61.00;;;;;;5037761;28;20553;-69
2023/04/17 03:52:16;;;;;;;8.20;4.80;;;20.30;61.10;;;;;;5053497;28;20064;-70
2023/04/17 03:54:47;;;;;;;8.90;5.22;;;20.30;61.10;;;;;;5047988;28;20033;-70
2023/04/17 03:57:14;;;;;;;8.63;5.20;;;20.30;60.90;;;;;;5056856;28;20035;-69
2023/04/17 03:59:39;;;;;;;8.05;4.80;;;20.30;61.10;;;;;;5073352;28;20055;-69
2023/04/17 04:02:06;;;;;;;8.85;4.88;;;20.30;61.20;;;;;;5056358;28;20051;-69
2023/04/17 04:04:34;;;;;;;9.52;5.18;;;20.30;61.10;;;;;;5052623;28;20033;-70
2023/04/17 04:07:07;;;;;;;10.20;5.50;;;20.30;61.30;;;;;;5053289;28;20029;-69
2023/04/17 04:09:34;;;;;;;9.75;5.30;;;20.30;61.10;;;;;;5055968;28;20486;-70
2023/04/17 04:12:00;;;;;;;9.65;5.15;;;20.30;61.30;;;;;;5054184;28;20035;-69
2023/04/17 04:14:27;;;;;;;8.85;5.35;;;20.30;61.20;;;;;;5055575;28;20028;-70
2023/04/17 04:16:53;;;;;;;10.60;5.20;;;20.30;61.10;;;;;;5052906;28;20025;-70
2023/04/17 04:19:19;;;;;;;8.55;5.20;;;20.30;61.20;;;;;;5058252;28;20021;-70
2023/04/17 04:21:45;;;;;;;10.50;5.55;;;20.30;61.20;;;;;;5055362;28;20024;-70
2023/04/17 04:24:13;;;;;;;8.55;5.18;;;20.30;61.10;;;;;;5055411;28;20036;-69
2023/04/17 04:26:41;;;;;;;8.02;4.90;;;20.30;61.30;;;;;;5052588;28;20036;-70
2023/04/17 04:29:08;;;;;;;7.53;4.72;;;20.30;61.20;;;;;;5053955;28;20028;-70
2023/04/17 04:32:01;;;;;;;9.35;5.03;;;20.30;61.30;;;;;;5070353;28;20503;-70
2023/04/17 04:34:35;;;;;;;7.82;4.82;;;20.30;61.20;;;;;;5051869;28;20029;-70
2023/04/17 04:37:01;;;;;;;13.97;5.30;;;20.30;61.20;;;;;;5036347;28;20079;-70
2023/04/17 04:39:36;;;;;;;9.20;5.43;;;20.30;61.00;;;;;;5055385;28;20336;-70
2023/04/17 04:42:04;;;;;;;8.65;4.82;;;20.40;61.10;;;;;;5052977;28;20029;-70
2023/04/17 04:44:33;;;;;;;8.77;5.05;;;20.40;61.10;;;;;;5052996;28;20037;-70
2023/04/17 04:46:59;;;;;;;10.40;5.40;;;20.40;60.80;;;;;;5053357;28;20036;-69
2023/04/17 04:49:25;;;;;;;10.80;5.20;;;20.40;61.10;;;;;;5055171;28;20107;-70
2023/04/17 04:51:51;;;;;;;8.63;4.75;;;20.30;60.90;;;;;;5053278;28;20108;-69
2023/04/17 04:54:19;;;;;;;10.30;5.00;;;20.40;60.90;;;;;;5043990;28;20036;-70
2023/04/17 04:56:53;;;;;;;9.88;5.03;;;20.30;61.00;;;;;;5054857;28;20032;-70
2023/04/17 04:59:19;;;;;;;7.90;4.95;;;20.40;61.10;;;;;;5055882;28;20046;-70
2023/04/17 05:01:54;;;;;;;8.25;4.82;;;20.40;61.10;;;;;;5051694;28;20029;-70
2023/04/17 05:04:22;;;;;;;9.38;5.38;;;20.40;61.20;;;;;;5054547;28;20043;-70
2023/04/17 05:06:51;;;;;;;7.83;4.73;;;20.40;61.20;;;;;;5052468;28;20033;-70
2023/04/17 05:09:17;;;;;;;8.85;4.78;;;20.40;61.20;;;;;;5067749;28;20301;-70
2023/04/17 05:11:43;;;;;;;8.82;5.32;;;20.40;61.40;;;;;;5054673;28;20130;-70
2023/04/17 05:14:10;;;;;;;7.60;4.53;;;20.30;61.30;;;;;;5054900;28;20055;-70
2023/04/17 05:16:37;;;;;;;10.07;4.80;;;20.40;61.00;;;;;;5031062;28;20040;-70
2023/04/17 05:19:03;;;;;;;12.32;4.95;;;20.40;60.90;;;;;;5050730;28;20414;-71
2023/04/17 05:21:46;;;;;;;9.70;5.03;;;20.30;61.20;;;;;;5046531;28;20206;-71
2023/04/17 05:24:12;;;;;;;7.50;4.85;;;20.40;61.10;;;;;;5053725;28;20581;-70
2023/04/17 05:26:38;;;;;;;10.50;5.28;;;20.40;61.10;;;;;;5051028;28;20103;-70
2023/04/17 05:29:06;;;;;;;8.40;4.95;;;20.40;61.10;;;;;;5053984;28;20031;-70
2023/04/17 05:31:33;;;;;;;8.48;5.05;;;20.40;61.10;;;;;;5050914;28;20043;-70
2023/04/17 05:34:02;;;;;;;7.75;5.05;;;20.40;61.30;;;;;;5052233;28;20104;-70
2023/04/17 05:36:30;;;;;;;10.85;5.18;;;20.40;61.20;;;;;;5037626;28;20116;-70
2023/04/17 05:39:01;;;;;;;10.10;4.97;;;20.40;61.20;;;;;;5054166;28;20208;-70
2023/04/17 05:41:29;;;;;;;10.30;5.72;;;20.40;61.40;;;;;;5052007;28;20095;-70
2023/04/17 05:43:55;;;;;;;9.73;5.05;;;20.40;61.70;;;;;;5052968;28;20501;-70
2023/04/17 05:46:21;;;;;;;10.80;5.57;;;20.40;61.10;;;;;;5053456;28;20032;-71
2023/04/17 05:48:47;;;;;;;11.32;6.07;;;20.40;61.10;;;;;;5038063;28;20401;-70
2023/04/17 05:51:12;;;;;;;9.65;5.28;;;20.40;61.30;;;;;;5054545;28;20517;-70
2023/04/17 05:53:38;;;;;;;9.10;5.10;;;20.40;61.40;;;;;;5050283;28;20832;-70
2023/04/17 05:56:04;;;;;;;10.95;6.00;;;20.40;61.30;;;;;;5034598;28;20132;-70
2023/04/17 05:58:34;;;;;;;8.85;5.00;;;20.40;61.20;;;;;;5054437;28;20028;-70
2023/04/17 06:01:05;;;;;;;7.20;4.80;;;20.40;61.10;;;;;;5053649;28;20028;-70
2023/04/17 06:03:33;;;;;;;9.30;4.90;;;20.40;61.30;;;;;;5047134;28;20025;-70
2023/04/17 06:06:12;;;;;;;8.38;5.05;;;20.40;61.30;;;;;;5035740;28;20494;-70
2023/04/17 06:08:37;;;;;;;8.45;5.18;;;20.40;61.10;;;;;;5051756;28;20036;-70
2023/04/17 06:11:04;;;;;;;10.50;5.82;;;20.40;61.00;;;;;;5047035;28;20032;-70
2023/04/17 06:13:30;;;;;;;8.85;4.93;;;20.40;61.20;;;;;;5052743;28;20048;-70
2023/04/17 06:15:57;;;;;;;8.90;5.20;;;20.40;61.20;;;;;;5053616;28;20027;-70
2023/04/17 06:18:23;;;;;;;7.95;5.05;;;20.40;61.20;;;;;;5050141;28;20021;-70
2023/04/17 06:20:49;;;;;;;10.90;4.97;;;20.40;61.40;;;;;;5050993;28;20029;-70
2023/04/17 06:23:15;;;;;;;11.52;5.00;;;20.40;61.20;;;;;;5070963;28;20089;-69
2023/04/17 06:25:41;;;;;;;9.98;5.40;;;20.30;61.10;;;;;;5049768;28;20543;-71
2023/04/17 06:28:07;;;;;;;8.80;5.25;;;20.40;61.40;;;;;;5067620;28;20135;-70
2023/04/17 06:30:33;;;;;;;8.38;5.15;;;20.40;61.10;;;;;;5047029;28;20029;-70
2023/04/17 06:32:59;;;;;;;10.93;5.20;;;20.30;61.60;;;;;;5050442;28;20390;-70
2023/04/17 06:35:25;;;;;;;8.27;4.93;;;20.30;61.10;;;;;;5066792;28;20035;-70
2023/04/17 06:37:56;;;;;;;10.77;5.25;;;20.30;61.40;;;;;;5047925;28;20024;-70
2023/04/17 06:40:22;;;;;;;10.80;5.32;;;20.40;60.90;;;;;;5048680;28;20021;-70
2023/04/17 06:42:49;;;;;;;9.73;5.20;;;20.30;61.00;;;;;;5045752;28;20021;-70
2023/04/17 06:45:20;;;;;;;10.25;5.55;;;20.30;61.00;;;;;;5041751;28;20067;-70
2023/04/17 06:47:46;;;;;;;8.70;5.43;;;20.40;60.90;;;;;;5066726;28;20048;-70
2023/04/17 06:50:15;;;;;;;12.40;6.07;;;20.30;61.20;;;;;;5048261;28;20712;-70
2023/04/17 06:52:42;;;;;;;8.57;5.65;;;20.40;60.70;;;;;;5071370;28;20115;-70
2023/04/17 06:55:08;;;;;;;11.05;5.70;;;20.40;60.70;;;;;;5068628;28;20416;-70
2023/04/17 06:57:34;;;;;;;13.23;5.32;;;20.40;61.00;;;;;;5048601;28;20028;-70
2023/04/17 07:00:00;;;;;;;9.45;4.72;;;20.40;61.10;;;;;;5068087;28;20027;-70
2023/04/17 07:02:26;;;;;;;9.70;5.45;;;20.40;61.10;;;;;;5070613;28;20016;-70
2023/04/17 07:04:53;;;;;;;9.60;5.03;;;20.40;60.80;;;;;;5069396;28;20100;-71
2023/04/17 07:07:20;;;;;;;10.05;4.97;;;20.40;60.70;;;;;;5071145;28;20031;-70
2023/04/17 07:09:47;;;;;;;12.07;4.85;;;20.40;60.90;;;;;;5070585;28;20028;-70
2023/04/17 07:12:16;;;;;;;8.57;4.97;;;20.40;60.90;;;;;;5051297;28;20501;-70
2023/04/17 07:14:41;;;;;;;8.45;4.90;;;20.40;60.90;;;;;;5051979;28;20517;-70
2023/04/17 07:17:07;;;;;;;10.98;5.85;;;20.40;60.90;;;;;;5039657;28;20109;-71
2023/04/17 07:19:34;;;;;;;10.80;5.15;;;20.40;60.80;;;;;;5066251;28;20032;-71
2023/04/17 07:21:59;;;;;;;8.38;5.03;;;20.40;60.70;;;;;;5070104;28;20020;-71
2023/04/17 07:24:25;;;;;;;6.95;4.53;;;20.40;60.70;;;;;;5066462;28;20033;-71
2023/04/17 07:26:51;;;;;;;8.98;4.68;;;20.40;60.80;;;;;;5070376;28;20066;-70
2023/04/17 07:29:17;;;;;;;8.93;4.88;;;20.40;60.70;;;;;;5070384;28;20024;-70
2023/04/17 07:31:43;;;;;;;8.80;4.95;;;20.40;60.80;;;;;;5052360;28;20040;-70
2023/04/17 07:34:09;;;;;;;11.27;4.70;;;20.40;60.60;;;;;;5070722;28;20028;-70
2023/04/17 07:36:35;;;;;;;9.02;4.75;;;20.40;60.60;;;;;;5069657;28;20115;-70
2023/04/17 07:39:02;;;;;;;7.43;4.68;;;20.40;60.60;;;;;;5070351;28;20012;-70
2023/04/17 07:41:28;;;;;;;9.70;5.07;;;20.40;61.20;;;;;;5070309;28;20486;-70
2023/04/17 07:43:53;;;;;;;9.15;4.85;;;20.40;60.60;;;;;;5069617;28;20056;-70
2023/04/17 07:46:19;;;;;;;7.95;4.40;;;20.40;60.60;;;;;;5037639;28;20036;-70
2023/04/17 07:48:45;;;;;;;12.00;5.50;;;20.40;60.70;;;;;;5048769;28;20032;-70
2023/04/17 07:51:11;;;;;;;8.43;4.65;;;20.40;60.50;;;;;;5067880;28;20029;-70
2023/04/17 07:53:37;;;;;;;7.60;4.78;;;20.40;60.40;;;;;;5068629;28;20162;-71
2023/04/17 07:56:05;;;;;;;7.93;4.32;;;20.40;60.50;;;;;;5068483;28;20106;-71
2023/04/17 07:58:30;;;;;;;7.90;5.07;;;20.40;60.50;;;;;;5069383;28;20028;-69
2023/04/17 08:00:56;;;;;;;7.97;4.88;;;20.40;60.40;;;;;;5069895;28;20104;-69
2023/04/17 08:03:22;;;;;;;7.22;4.68;;;20.40;60.80;;;;;;5069777;28;20064;-69
2023/04/17 08:05:50;;;;;;;8.55;5.03;;;20.40;60.60;;;;;;5052230;28;20028;-70
2023/04/17 08:08:17;;;;;;;10.35;4.57;;;20.40;60.30;;;;;;5065907;28;20028;-70
2023/04/17 08:10:42;;;;;;;7.82;5.00;;;20.40;60.60;;;;;;5070498;28;20031;-70
2023/04/17 08:13:08;;;;;;;8.27;4.70;;;20.40;61.00;;;;;;5052043;28;20033;-70
2023/04/17 08:15:38;;;;;;;13.23;5.30;;;20.40;60.50;;;;;;5035263;28;20692;-70
2023/04/17 08:18:03;;;;;;;7.63;4.45;;;20.40;60.90;;;;;;5066059;28;20074;-70
2023/04/17 08:20:29;;;;;;;7.72;4.05;;;20.40;60.50;;;;;;5068676;28;20020;-70
2023/04/17 08:22:55;;;;;;;8.77;4.38;;;20.40;60.40;;;;;;5066406;28;20107;-69
2023/04/17 08:25:21;;;;;;;7.82;4.90;;;20.40;60.50;;;;;;5066912;28;20104;-70
2023/04/17 08:27:46;;;;;;;9.48;4.72;;;20.40;60.70;;;;;;5066659;28;20101;-70
2023/04/17 08:30:14;;;;;;;10.20;5.07;;;20.40;60.70;;;;;;5063619;28;20038;-70
2023/04/17 08:32:41;;;;;;;9.23;4.70;;;20.40;60.80;;;;;;5051300;28;20039;-70
2023/04/17 08:35:10;;;;;;;9.90;5.15;;;20.40;60.60;;;;;;5061245;28;20032;-70
2023/04/17 08:37:36;;;;;;;12.02;4.82;;;20.40;60.70;;;;;;5071702;28;20027;-70
2023/04/17 08:40:08;;;;;;;8.73;5.05;;;20.40;60.50;;;;;;5073370;28;20043;-70
2023/04/17 08:42:35;;;;;;;9.00;4.40;;;20.40;60.60;;;;;;5053281;28;20028;-70
2023/04/17 08:45:08;;;;;;;8.07;4.78;;;20.40;60.50;;;;;;5052082;28;20432;-70
2023/04/17 08:47:33;;;;;;;8.52;4.28;;;20.40;60.70;;;;;;5067430;28;20040;-70
2023/04/17 08:50:29;;;;;;;11.20;5.10;;;20.40;60.50;;;;;;5072723;28;20020;-70
2023/04/17 08:52:55;;;;;;;7.97;4.40;;;20.40;60.40;;;;;;5044605;28;20509;-69
2023/04/17 08:55:24;;;;;;;12.07;4.78;;;20.40;60.20;;;;;;5072721;28;20025;-70
2023/04/17 08:58:02;;;;;;;7.15;4.47;;;20.40;60.20;;;;;;5072881;28;20112;-69
2023/04/17 09:00:37;;;;;;;11.05;4.40;;;20.50;60.30;;;;;;5042131;28;20025;-70
2023/04/17 09:03:07;;;;;;;6.88;4.55;;;20.50;60.30;;;;;;5072793;28;20016;-70
2023/04/17 09:05:35;;;;;;;11.52;5.07;;;20.40;60.40;;;;;;5072337;28;20082;-69
2023/04/17 09:08:25;;;;;;;6.60;4.28;;;20.40;60.50;;;;;;5072002;28;20035;-70
2023/04/17 09:10:52;;;;;;;6.50;4.45;;;20.40;60.40;;;;;;5065356;28;20059;-70
2023/04/17 09:13:21;;;;;;;6.32;3.95;;;20.50;60.20;;;;;;5068356;28;20055;-70
2023/04/17 09:16:03;;;;;;;17.17;5.10;;;20.40;60.40;;;;;;5071973;28;20035;-70
2023/04/17 09:18:30;;;;;;;8.65;4.68;;;20.40;60.90;;;;;;5044596;28;20427;-70
2023/04/17 09:20:58;;;;;;;17.98;4.95;;;20.40;61.20;;;;;;5069657;28;20017;-70
2023/04/17 09:23:24;;;;;;;12.57;4.70;;;20.50;61.30;;;;;;5071036;28;20445;-70
2023/04/17 09:26:10;;;;;;;12.77;4.30;;;20.50;61.70;;;;;;5040379;28;20505;-69
2023/04/17 09:28:40;;;;;;;14.80;4.57;;;20.50;62.20;;;;;;5052796;28;20465;-70
2023/04/17 09:31:18;;;;;;;9.65;4.40;;;20.50;62.10;;;;;;5053748;28;20024;-70
2023/04/17 09:34:12;;;;;;;8.85;4.20;;;20.50;62.50;;;;;;5047415;28;20112;-70
2023/04/17 09:36:40;;;;;;;7.35;4.75;;;20.50;62.00;;;;;;5036793;28;20056;-70
2023/04/17 09:39:22;;;;;;;11.40;4.28;;;20.50;63.20;;;;;;5057558;28;20409;-71
2023/04/17 09:41:49;;;;;;;9.93;4.50;;;20.50;62.60;;;;;;5053315;28;20150;-70
2023/04/17 09:44:28;;;;;;;25.40;6.30;;;20.50;62.40;;;;;;5072791;28;20526;-70
2023/04/17 09:46:55;;;;;;;14.00;4.40;;;20.50;62.20;;;;;;5072856;28;20044;-70
2023/04/17 09:49:41;;;;;;;10.00;4.57;;;20.50;62.00;;;;;;5072520;28;20513;-70
2023/04/17 09:52:07;;;;;;;11.48;4.93;;;20.50;61.90;;;;;;5038321;28;20056;-70
2023/04/17 09:54:36;;;;;;;8.40;4.72;;;20.50;62.00;;;;;;5054208;28;20053;-70
2023/04/17 09:57:07;;;;;;;13.35;4.80;;;20.50;62.30;;;;;;5065177;28;20020;-70
2023/04/17 09:59:49;;;;;;;8.57;4.10;;;20.50;62.10;;;;;;5063903;28;20045;-70
2023/04/17 10:02:20;;;;;;;7.93;4.40;;;20.50;62.30;;;;;;5071076;28;20025;-70
2023/04/17 10:04:46;;;;;;;9.98;4.72;;;20.60;62.20;;;;;;5070841;28;20025;-69
2023/04/17 10:07:13;;;;;;;9.32;4.18;;;20.50;62.30;;;;;;5072086;28;20024;-69
2023/04/17 10:09:40;;;;;;;11.90;4.70;;;20.50;62.20;;;;;;5071909;28;20390;-69
2023/04/17 10:12:14;;;;;;;12.85;4.63;;;20.60;62.00;;;;;;5072278;28;20067;-69
2023/04/17 10:14:47;;;;;;;12.18;4.80;;;20.50;61.70;;;;;;5071882;28;20430;-69
2023/04/17 10:17:30;;;;;;;9.35;4.40;;;20.50;62.30;;;;;;5063791;28;20024;-70
2023/04/17 10:20:18;;;;;;;10.00;5.20;;;20.50;62.20;;;;;;5054152;28;20035;-70
2023/04/17 10:22:55;;;;;;;12.02;4.57;;;20.60;62.20;;;;;;5071967;28;20441;-69
2023/04/17 10:25:23;;;;;;;8.13;4.20;;;20.60;62.40;;;;;;5047186;28;20021;-71
2023/04/17 10:27:59;;;;;;;16.25;8.27;;;20.50;61.70;;;;;;5034066;28;20566;-71
2023/04/17 10:30:48;;;;;;;25.73;7.88;;;20.50;58.70;;;;;;5063609;28;20025;-71
2023/04/17 10:33:20;;;;;;;16.00;8.75;;;20.40;56.40;;;;;;5054977;28;20439;-70
2023/04/17 10:35:47;;;;;;;20.05;10.23;;;20.30;53.10;;;;;;5037371;28;20036;-71
2023/04/17 10:38:14;;;;;;;16.23;9.13;;;20.30;51.50;;;;;;5037492;28;20025;-71
2023/04/17 10:40:42;;;;;;;17.02;9.35;;;20.20;51.60;;;;;;5050288;28;20415;-70
2023/04/17 10:43:13;;;;;;;32.55;9.98;;;20.20;50.60;;;;;;5060516;28;20059;-70
2023/04/17 10:46:00;;;;;;;12.38;7.22;;;20.20;51.10;;;;;;5071128;28;20029;-70
2023/04/17 10:48:34;;;;;;;15.73;7.20;;;20.20;52.60;;;;;;5071534;28;20037;-70
2023/04/17 10:51:26;;;;;;;12.23;6.97;;;20.30;53.50;;;;;;5053747;28;20029;-70
2023/04/17 10:53:59;;;;;;;14.45;7.70;;;20.40;54.20;;;;;;5069815;28;20028;-70
2023/04/17 10:56:36;;;;;;;17.95;7.50;;;20.40;54.70;;;;;;5059723;28;20036;-70
2023/04/17 10:59:03;;;;;;;13.95;7.25;;;20.50;54.80;;;;;;5051440;28;20532;-72
2023/04/17 11:01:46;;;;;;;14.00;7.40;;;20.50;55.40;;;;;;5044654;28;20039;-71
2023/04/17 11:04:22;;;;;;;19.77;8.02;;;20.50;55.50;;;;;;5033028;28;20140;-71
2023/04/17 11:06:48;;;;;;;20.55;7.35;;;20.60;57.00;;;;;;5035922;28;20029;-71
2023/04/17 11:09:14;;;;;;;17.27;7.30;;;20.60;57.40;;;;;;5051519;28;20032;-72
2023/04/17 11:11:42;;;;;;;15.55;8.10;;;20.60;58.30;;;;;;5055165;28;20024;-70
2023/04/17 11:14:10;;;;;;;18.20;8.50;;;20.60;58.00;;;;;;5070868;28;20028;-70
2023/04/17 11:16:41;;;;;;;13.18;8.15;;;20.70;58.20;;;;;;5053596;28;20027;-70
2023/04/17 11:19:08;;;;;;;16.33;8.25;;;20.70;57.40;;;;;;5071407;28;20032;-70
2023/04/17 11:21:57;;;;;;;15.07;7.40;;;20.60;58.80;;;;;;5070620;28;20103;-70
2023/04/17 11:24:23;;;;;;;21.70;7.05;;;20.60;58.30;;;;;;5064007;28;20060;-70
2023/04/17 11:26:49;;;;;;;12.60;6.53;;;20.60;57.50;;;;;;5053112;28;20082;-69
2023/04/17 11:29:20;;;;;;;15.07;7.55;;;20.60;56.30;;;;;;5071186;28;20032;-71
2023/04/17 11:31:48;;;;;;;14.00;6.68;;;20.70;57.70;;;;;;5053055;28;20115;-70
2023/04/17 11:34:15;;;;;;;17.13;6.72;;;20.70;58.60;;;;;;5070950;28;20115;-70
2023/04/17 11:36:55;;;;;;;10.82;6.40;;;20.70;56.70;;;;;;5070959;28;20054;-70
2023/04/17 11:39:28;;;;;;;12.77;6.57;;;20.70;57.60;;;;;;5071122;28;20024;-70
2023/04/17 11:41:55;;;;;;;15.60;6.35;;;20.60;57.10;;;;;;5071306;28;20020;-71
2023/04/17 11:44:22;;;;;;;11.43;6.47;;;20.60;56.20;;;;;;5069902;28;20036;-70
2023/04/17 11:46:52;;;;;;;15.32;6.30;;;20.60;56.70;;;;;;5054952;28;20103;-70
2023/04/17 11:49:31;;;;;;;16.23;7.03;;;20.70;56.70;;;;;;5052146;28;20398;-70
2023/04/17 11:52:00;;;;;;;11.50;5.65;;;20.70;56.30;;;;;;5009096;28;20056;-70
2023/04/17 11:54:27;;;;;;;17.17;7.78;;;20.60;56.70;;;;;;4960643;28;20491;-70
2023/04/17 11:57:11;;;;;;;16.30;7.18;;;20.60;56.60;;;;;;5011170;28;20022;-70
2023/04/17 11:59:39;;;;;;;16.17;6.45;;;20.60;55.10;;;;;;5011307;28;20542;-70
2023/04/17 12:02:06;;;;;;;14.77;6.63;;;20.60;54.90;;;;;;5010161;28;20022;-70
2023/04/17 12:04:33;;;;;;;11.95;6.25;;;20.60;55.50;;;;;;5010930;28;20034;-70
2023/04/17 12:07:03;;;;;;;12.98;6.25;;;20.60;55.20;;;;;;5011336;28;20033;-70
2023/04/17 12:09:32;;;;;;;16.35;6.85;;;20.60;55.40;;;;;;5010103;28;20034;-70
2023/04/17 12:12:04;;;;;;;16.05;6.40;;;20.60;55.60;;;;;;5012677;28;20033;-70
2023/04/17 12:14:30;;;;;;;11.82;6.35;;;20.60;55.60;;;;;;5014587;28;20049;-70
2023/04/17 12:16:56;;;;;;;12.48;5.97;;;20.60;55.60;;;;;;5013684;28;20507;-70
2023/04/17 12:19:24;;;;;;;15.27;6.78;;;20.60;55.60;;;;;;5013852;28;20026;-70
2023/04/17 12:21:51;;;;;;;13.48;6.75;;;20.60;55.50;;;;;;5014895;28;20168;-70
2023/04/17 12:24:18;;;;;;;20.00;7.70;;;20.60;55.70;;;;;;5014419;28;20030;-70
2023/04/17 12:26:48;;;;;;;19.95;7.22;;;20.60;55.80;;;;;;5014688;28;20083;-70
2023/04/17 12:29:15;;;;;;;13.48;6.72;;;20.60;55.90;;;;;;5013436;28;20034;-70
2023/04/17 12:31:41;;;;;;;16.73;7.70;;;20.60;56.10;;;;;;5013254;28;20116;-70
2023/04/17 12:34:06;;;;;;;18.83;7.35;;;20.60;56.20;;;;;;5012940;28;20130;-70
2023/04/17 12:36:33;;;;;;;23.05;8.43;;;20.60;55.80;;;;;;5014575;28;20022;-70
2023/04/17 12:38:59;;;;;;;21.00;8.23;;;20.60;56.20;;;;;;5014437;28;20101;-70
2023/04/17 12:41:25;;;;;;;19.02;7.50;;;20.60;56.00;;;;;;5014486;28;20105;-70
2023/04/17 12:43:52;;;;;;;23.77;8.48;;;20.60;56.00;;;;;;5012920;28;20068;-70
2023/04/17 12:46:18;;;;;;;21.75;8.00;;;20.60;56.00;;;;;;5014306;28;20120;-70
2023/04/17 12:48:43;;;;;;;24.63;8.70;;;20.60;56.10;;;;;;5014495;28;20105;-70